createdAt,value
2023-04-29T00:04:26.584Z,11.79
2023-04-29T00:09:29.521Z,11.78
2023-04-29T00:14:32.230Z,11.72
2023-04-29T00:19:36.434Z,11.69
2023-04-29T00:24:39.174Z,11.70
2023-04-29T00:29:41.889Z,11.64
2023-04-29T00:34:46.100Z,11.64
2023-04-29T00:39:49.230Z,11.59
2023-04-29T00:44:51.964Z,11.65
2023-04-29T00:49:56.034Z,11.59
2023-04-29T00:54:59.750Z,11.46
2023-04-29T01:00:02.742Z,11.37
2023-04-29T01:05:07.666Z,11.14
2023-04-29T01:10:11.712Z,11.06
2023-04-29T01:15:21.673Z,11.06
2023-04-29T01:20:27.233Z,11.06
2023-04-29T01:25:31.492Z,11.18
2023-04-29T01:30:51.895Z,11.18
2023-04-29T01:36:15.588Z,11.13
2023-04-29T01:41:24.615Z,11.10
2023-04-29T01:46:31.964Z,11.09
2023-04-29T01:51:35.328Z,10.95
2023-04-29T01:56:40.091Z,10.89
2023-04-29T02:01:51.573Z,10.81
2023-04-29T02:06:55.193Z,10.71
2023-04-29T02:12:01.166Z,10.58
2023-04-29T02:17:06.403Z,10.58
2023-04-29T02:22:12.438Z,10.56
2023-04-29T02:27:18.550Z,10.49
2023-04-29T02:32:21.277Z,10.40
2023-04-29T02:37:24.483Z,10.22
2023-04-29T02:42:28.561Z,10.11
2023-04-29T02:47:31.354Z,9.98
2023-04-29T02:52:34.158Z,9.98
2023-04-29T02:57:38.483Z,10.00
2023-04-29T03:02:41.546Z,9.96
2023-04-29T03:07:44.786Z,9.96
2023-04-29T03:12:48.829Z,9.87
2023-04-29T03:17:52.083Z,9.85
2023-04-29T03:22:54.801Z,9.74
2023-04-29T03:27:58.881Z,9.77
2023-04-29T03:33:02.312Z,9.71
2023-04-29T03:38:06.415Z,9.97
2023-04-29T03:43:13.862Z,9.75
2023-04-29T03:48:17.173Z,9.71
2023-04-29T03:53:20.763Z,9.77
2023-04-29T03:58:25.085Z,9.68
2023-04-29T04:03:28.768Z,9.58
2023-04-29T04:08:33.476Z,9.61
2023-04-29T04:13:50.853Z,9.50
2023-04-29T04:18:55.160Z,9.51
2023-04-29T04:23:58.049Z,9.52
2023-04-29T04:29:02.550Z,9.55
2023-04-29T04:34:14.121Z,9.49
2023-04-29T04:39:17.116Z,9.51
2023-04-29T04:44:21.646Z,9.49
2023-04-29T04:49:37.243Z,9.48
2023-04-29T04:54:40.187Z,9.52
2023-04-29T04:59:52.879Z,9.48
2023-04-29T05:04:56.082Z,9.51
2023-04-29T05:10:02.276Z,9.50
2023-04-29T05:15:09.488Z,9.54
2023-04-29T05:20:13.411Z,9.53
2023-04-29T05:25:16.224Z,9.50
2023-04-29T05:30:20.996Z,9.52
2023-04-29T05:35:23.950Z,9.53
2023-04-29T05:40:27.146Z,9.61
2023-04-29T05:45:40.088Z,9.48
2023-04-29T05:50:42.944Z,9.41
2023-04-29T05:55:46.502Z,9.41
2023-04-29T06:00:51.533Z,9.38
2023-04-29T06:05:59.121Z,9.38
2023-04-29T06:11:37.561Z,9.40
2023-04-29T06:16:42.093Z,9.48
2023-04-29T06:21:45.116Z,9.39
2023-04-29T06:26:48.724Z,9.36
2023-04-29T06:31:54.102Z,9.34
2023-04-29T06:36:56.951Z,9.37
2023-04-29T06:42:22.373Z,9.44
2023-04-29T06:47:58.574Z,9.50
2023-04-29T06:53:13.322Z,9.42
2023-04-29T06:58:17.608Z,9.42
2023-04-29T07:03:21.761Z,9.28
2023-04-29T07:08:24.466Z,9.29
2023-04-29T07:13:29.155Z,9.28
2023-04-29T07:18:33.195Z,9.42
2023-04-29T07:23:35.935Z,9.38
2023-04-29T07:28:38.687Z,9.49
2023-04-29T07:33:42.795Z,9.61
2023-04-29T07:38:45.830Z,9.67
2023-04-29T07:43:48.518Z,9.63
2023-04-29T07:48:52.990Z,9.77
2023-04-29T07:53:55.825Z,9.69
2023-04-29T07:58:58.541Z,9.65
2023-04-29T08:04:03.151Z,9.85
2023-04-29T08:09:09.134Z,10.03
2023-04-29T08:14:11.869Z,10.02
2023-04-29T08:19:15.980Z,10.39
2023-04-29T08:24:18.725Z,10.42
2023-04-29T08:29:21.471Z,10.48
2023-04-29T08:34:25.628Z,10.54
2023-04-29T08:39:29.756Z,10.83
2023-04-29T08:44:33.966Z,10.67
2023-04-29T08:49:39.280Z,10.73
2023-04-29T08:54:42.009Z,10.54
2023-04-29T08:59:44.831Z,10.74
2023-04-29T09:04:55.904Z,10.67
2023-04-29T09:09:59.078Z,11.14
2023-04-29T09:15:01.847Z,11.35
2023-04-29T09:20:29.353Z,11.50
2023-04-29T09:25:32.564Z,11.69
2023-04-29T09:30:47.124Z,11.47
2023-04-29T09:35:51.224Z,11.50
2023-04-29T09:40:59.524Z,11.77
2023-04-29T09:46:02.837Z,11.95
2023-04-29T09:51:07.156Z,11.71
2023-04-29T09:56:09.883Z,11.74
2023-04-29T10:01:14.215Z,12.09
2023-04-29T10:06:19.048Z,11.85
2023-04-29T10:11:22.194Z,12.25
2023-04-29T10:16:32.963Z,11.89
2023-04-29T10:21:38.124Z,11.89
2023-04-29T10:26:42.609Z,12.33
2023-04-29T10:31:45.764Z,12.14
2023-04-29T10:36:50.320Z,12.03
2023-04-29T10:41:53.287Z,12.05
2023-04-29T10:47:19.845Z,12.42
2023-04-29T10:52:23.892Z,12.93
2023-04-29T10:57:26.768Z,12.57
2023-04-29T11:02:29.490Z,13.00
2023-04-29T11:07:33.557Z,12.68
2023-04-29T11:12:36.246Z,12.78
2023-04-29T11:17:39.391Z,12.92
2023-04-29T11:22:43.554Z,12.26
2023-04-29T11:27:48.420Z,12.79
2023-04-29T11:32:52.007Z,12.36
2023-04-29T11:37:56.549Z,12.50
2023-04-29T11:42:59.317Z,12.51
2023-04-29T11:48:02.165Z,12.76
2023-04-29T11:53:06.262Z,12.88
2023-04-29T11:58:08.996Z,13.21
2023-04-29T12:03:14.827Z,13.00
2023-04-29T12:08:22.098Z,13.05
2023-04-29T12:13:25.946Z,13.11
2023-04-29T12:18:30.943Z,13.04
2023-04-29T12:23:36.940Z,13.04
2023-04-29T12:28:42.013Z,13.42
2023-04-29T12:33:45.463Z,13.22
2023-04-29T12:38:49.779Z,13.17
2023-04-29T12:43:52.557Z,12.65
2023-04-29T12:48:55.275Z,12.77
2023-04-29T12:53:59.402Z,12.68
2023-04-29T12:59:07.421Z,13.11
2023-04-29T13:04:11.709Z,13.01
2023-04-29T13:09:18.985Z,12.96
2023-04-29T13:14:22.473Z,13.11
2023-04-29T13:19:41.064Z,13.31
2023-04-29T13:24:49.270Z,13.30
2023-04-29T13:29:52.037Z,13.60
2023-04-29T13:34:55.006Z,13.48
2023-04-29T13:39:59.144Z,13.60
2023-04-29T13:45:01.925Z,13.34
2023-04-29T14:00:47.125Z,13.54
2023-04-29T14:05:42.486Z,13.19
2023-04-29T14:10:47.884Z,13.46
2023-04-29T14:15:50.694Z,13.44
2023-04-29T14:20:54.139Z,13.28
2023-04-29T14:26:11.601Z,13.21
2023-04-29T14:31:20.909Z,13.21
2023-04-29T14:36:23.852Z,13.16
2023-04-29T14:41:27.956Z,13.22
2023-04-29T14:46:31.178Z,13.22
2023-04-29T14:51:33.881Z,13.16
2023-04-29T14:56:38.063Z,13.26
2023-04-29T15:01:40.869Z,13.14
2023-04-29T15:06:43.665Z,13.40
2023-04-29T15:11:47.730Z,13.42
2023-04-29T15:16:50.622Z,13.94
2023-04-29T15:21:53.564Z,13.54
2023-04-29T15:26:57.697Z,13.71
2023-04-29T15:32:00.705Z,13.17
2023-04-29T15:37:03.494Z,13.10
2023-04-29T15:42:08.225Z,13.44
2023-04-29T15:47:11.586Z,13.38
2023-04-29T15:52:14.403Z,13.39
2023-04-29T15:57:18.432Z,13.41
2023-04-29T16:02:21.477Z,13.44
2023-04-29T16:07:24.370Z,13.38
2023-04-29T16:12:28.520Z,13.43
2023-04-29T16:17:32.612Z,13.45
2023-04-29T16:22:35.336Z,13.48
2023-04-29T16:27:39.676Z,13.30
2023-04-29T16:32:43.003Z,13.38
2023-04-29T16:37:45.743Z,13.37
2023-04-29T16:42:49.749Z,13.35
2023-04-29T16:47:52.766Z,13.35
2023-04-29T16:52:55.446Z,13.41
2023-04-29T16:57:59.561Z,13.27
2023-04-29T17:03:02.367Z,13.23
2023-04-29T17:08:05.513Z,13.18
2023-04-29T17:13:09.759Z,13.15
2023-04-29T17:18:12.671Z,13.16
2023-04-29T17:23:15.360Z,13.03
2023-04-29T17:28:19.428Z,13.02
2023-04-29T17:33:22.149Z,12.97
2023-04-29T17:38:24.814Z,12.97
2023-04-29T17:43:32.266Z,12.93
2023-04-29T17:48:35.098Z,12.90
2023-04-29T17:53:37.810Z,12.89
2023-04-29T17:58:41.861Z,12.88
2023-04-29T18:03:46.380Z,12.83
2023-04-29T18:08:49.642Z,12.80
2023-04-29T18:13:54.760Z,12.81
2023-04-29T18:18:57.778Z,12.83
2023-04-29T18:24:00.734Z,12.97
2023-04-29T18:29:04.794Z,12.82
2023-04-29T18:34:07.460Z,12.77
2023-04-29T18:39:10.142Z,12.73
2023-04-29T18:44:14.193Z,12.63
2023-04-29T18:49:17.814Z,12.57
2023-04-29T18:54:20.874Z,12.40
2023-04-29T18:59:26.818Z,12.28
2023-04-29T19:04:29.598Z,12.20
2023-04-29T19:09:33.008Z,12.10
2023-04-29T19:14:38.399Z,11.99
2023-04-29T19:19:41.174Z,12.01
2023-04-29T19:24:44.072Z,11.77
2023-04-29T19:29:48.292Z,11.75
2023-04-29T19:34:51.057Z,11.61
2023-04-29T19:39:54.095Z,11.54
2023-04-29T19:44:58.339Z,11.24
2023-04-29T19:50:01.171Z,11.06
2023-04-29T19:55:04.843Z,11.08
2023-04-29T20:00:11.661Z,11.12
2023-04-29T20:05:15.260Z,11.06
2023-04-29T20:10:18.016Z,10.97
2023-04-29T20:15:22.168Z,10.85
2023-04-29T20:20:26.021Z,10.66
2023-04-29T20:25:28.876Z,10.31
2023-04-29T20:30:33.133Z,10.27
2023-04-29T20:35:35.872Z,10.29
2023-04-29T20:40:38.606Z,10.09
2023-04-29T20:45:42.843Z,10.00
2023-04-29T20:50:45.596Z,9.99
2023-04-29T20:55:48.272Z,9.78
2023-04-29T21:00:52.298Z,9.62
2023-04-29T21:05:55.159Z,9.77
2023-04-29T21:10:57.885Z,9.60
2023-04-29T21:16:02.123Z,9.45
2023-04-29T21:21:05.031Z,9.49
2023-04-29T21:26:07.718Z,9.50
2023-04-29T21:31:15.991Z,9.42
2023-04-29T21:36:18.841Z,9.46
2023-04-29T21:41:26.628Z,9.49
2023-04-29T21:46:33.146Z,9.24
2023-04-29T21:51:36.311Z,9.20
2023-04-29T21:56:39.003Z,9.20
2023-04-29T22:02:00.068Z,9.27
2023-04-29T22:07:02.937Z,9.17
2023-04-29T22:12:05.889Z,9.13
2023-04-29T22:17:09.921Z,9.11
2023-04-29T22:22:12.582Z,9.06
2023-04-29T22:27:15.784Z,9.03
2023-04-29T22:32:19.900Z,8.98
2023-04-29T22:37:22.703Z,9.01
2023-04-29T22:42:25.498Z,8.99
2023-04-29T22:47:30.061Z,9.09
2023-04-29T22:52:33.066Z,8.91
2023-04-29T22:57:35.955Z,8.94
2023-04-29T23:02:40.413Z,8.79
2023-04-29T23:07:43.137Z,8.68
2023-04-29T23:12:45.836Z,8.51
2023-04-29T23:17:49.878Z,8.43
2023-04-29T23:22:52.606Z,8.37
2023-04-29T23:27:55.635Z,8.33
2023-04-29T23:32:59.877Z,8.31
2023-04-29T23:38:02.581Z,8.19
2023-04-29T23:43:05.460Z,8.11
2023-04-29T23:48:10.607Z,8.02
2023-04-29T23:53:13.326Z,7.93
2023-04-29T23:58:16.014Z,7.82
